sensor_id;sensor_type;location;lat;lon;timestamp;pressure;altitude;pressure_sealevel;temperature;humidity
56831;BME280;42713;42.676;23.352;2023-05-21T00:00:11;94641.88;;;16.45;70.24
56831;BME280;42713;42.676;23.352;2023-05-21T00:02:38;94636.06;;;16.43;70.02
56831;BME280;42713;42.676;23.352;2023-05-21T00:05:05;94629.50;;;16.41;70.43
56831;BME280;42713;42.676;23.352;2023-05-21T00:07:30;94634.78;;;16.41;69.92
56831;BME280;42713;42.676;23.352;2023-05-21T00:09:57;94639.53;;;16.44;70.09
56831;BME280;42713;42.676;23.352;2023-05-21T00:12:22;94637.72;;;16.39;70.34
56831;BME280;42713;42.676;23.352;2023-05-21T00:14:48;94627.41;;;16.38;70.51
56831;BME280;42713;42.676;23.352;2023-05-21T00:17:13;94626.09;;;16.40;70.34
56831;BME280;42713;42.676;23.352;2023-05-21T00:19:39;94628.00;;;16.34;70.18
56831;BME280;42713;42.676;23.352;2023-05-21T00:22:05;94623.56;;;16.30;70.75
56831;BME280;42713;42.676;23.352;2023-05-21T00:24:30;94628.66;;;16.21;71.16
56831;BME280;42713;42.676;23.352;2023-05-21T00:26:55;94623.88;;;16.23;71.27
56831;BME280;42713;42.676;23.352;2023-05-21T00:29:21;94619.38;;;16.24;70.72
56831;BME280;42713;42.676;23.352;2023-05-21T00:31:47;94626.75;;;16.27;70.92
56831;BME280;42713;42.676;23.352;2023-05-21T00:34:15;94622.63;;;16.15;71.64
56831;BME280;42713;42.676;23.352;2023-05-21T00:36:40;94625.81;;;16.12;71.45
56831;BME280;42713;42.676;23.352;2023-05-21T00:39:10;94612.97;;;16.06;71.38
56831;BME280;42713;42.676;23.352;2023-05-21T00:41:36;94616.38;;;16.06;71.68
56831;BME280;42713;42.676;23.352;2023-05-21T00:44:05;94613.72;;;16.06;71.14
56831;BME280;42713;42.676;23.352;2023-05-21T00:46:30;94618.50;;;16.04;71.61
56831;BME280;42713;42.676;23.352;2023-05-21T00:48:56;94614.84;;;16.00;71.07
56831;BME280;42713;42.676;23.352;2023-05-21T00:51:23;94613.31;;;15.94;71.98
56831;BME280;42713;42.676;23.352;2023-05-21T00:53:50;94619.72;;;15.87;72.14
56831;BME280;42713;42.676;23.352;2023-05-21T00:56:19;94618.66;;;15.89;71.80
56831;BME280;42713;42.676;23.352;2023-05-21T00:58:47;94619.72;;;15.82;73.58
56831;BME280;42713;42.676;23.352;2023-05-21T01:01:12;94622.22;;;15.68;74.47
56831;BME280;42713;42.676;23.352;2023-05-21T01:03:38;94618.50;;;15.69;74.94
56831;BME280;42713;42.676;23.352;2023-05-21T01:06:06;94608.22;;;15.68;73.59
56831;BME280;42713;42.676;23.352;2023-05-21T01:08:32;94618.81;;;15.63;75.13
56831;BME280;42713;42.676;23.352;2023-05-21T01:11:00;94616.75;;;15.60;75.52
56831;BME280;42713;42.676;23.352;2023-05-21T01:13:26;94615.19;;;15.59;76.36
56831;BME280;42713;42.676;23.352;2023-05-21T01:15:52;94610.97;;;15.57;74.88
56831;BME280;42713;42.676;23.352;2023-05-21T01:18:19;94600.44;;;15.52;75.60
56831;BME280;42713;42.676;23.352;2023-05-21T01:20:45;94600.25;;;15.44;75.34
56831;BME280;42713;42.676;23.352;2023-05-21T01:23:16;94599.94;;;15.50;74.99
56831;BME280;42713;42.676;23.352;2023-05-21T01:25:42;94601.78;;;15.50;74.64
56831;BME280;42713;42.676;23.352;2023-05-21T01:28:07;94603.41;;;15.46;74.91
56831;BME280;42713;42.676;23.352;2023-05-21T01:30:34;94596.03;;;15.43;75.09
56831;BME280;42713;42.676;23.352;2023-05-21T01:33:12;94593.91;;;15.45;74.92
56831;BME280;42713;42.676;23.352;2023-05-21T01:35:44;94593.09;;;15.44;74.96
56831;BME280;42713;42.676;23.352;2023-05-21T01:38:28;94598.38;;;15.44;75.78
56831;BME280;42713;42.676;23.352;2023-05-21T01:40:59;94584.69;;;15.42;75.59
56831;BME280;42713;42.676;23.352;2023-05-21T01:43:34;94588.38;;;15.41;75.44
56831;BME280;42713;42.676;23.352;2023-05-21T01:46:01;94588.88;;;15.43;75.38
56831;BME280;42713;42.676;23.352;2023-05-21T01:48:28;94598.44;;;15.39;75.60
56831;BME280;42713;42.676;23.352;2023-05-21T01:50:59;94596.56;;;15.39;75.43
56831;BME280;42713;42.676;23.352;2023-05-21T01:53:26;94596.56;;;15.39;75.51
56831;BME280;42713;42.676;23.352;2023-05-21T01:55:51;94600.56;;;15.37;76.16
56831;BME280;42713;42.676;23.352;2023-05-21T01:58:19;94591.03;;;15.41;75.79
56831;BME280;42713;42.676;23.352;2023-05-21T02:00:46;94590.75;;;15.43;76.09
56831;BME280;42713;42.676;23.352;2023-05-21T02:03:14;94593.16;;;15.39;75.45
56831;BME280;42713;42.676;23.352;2023-05-21T02:05:40;94582.06;;;15.37;75.92
56831;BME280;42713;42.676;23.352;2023-05-21T02:08:05;94583.94;;;15.36;75.67
56831;BME280;42713;42.676;23.352;2023-05-21T02:10:34;94578.59;;;15.41;74.87
56831;BME280;42713;42.676;23.352;2023-05-21T02:13:00;94585.22;;;15.39;75.38
56831;BME280;42713;42.676;23.352;2023-05-21T02:15:25;94581.31;;;15.36;75.44
56831;BME280;42713;42.676;23.352;2023-05-21T02:17:51;94581.84;;;15.33;75.28
56831;BME280;42713;42.676;23.352;2023-05-21T02:20:17;94578.16;;;15.34;75.27
56831;BME280;42713;42.676;23.352;2023-05-21T02:22:44;94578.91;;;15.35;75.34
56831;BME280;42713;42.676;23.352;2023-05-21T02:25:12;94581.91;;;15.28;74.87
56831;BME280;42713;42.676;23.352;2023-05-21T02:27:38;94582.19;;;15.21;75.42
56831;BME280;42713;42.676;23.352;2023-05-21T02:30:09;94579.31;;;15.18;75.45
56831;BME280;42713;42.676;23.352;2023-05-21T02:32:35;94581.22;;;15.12;75.49
56831;BME280;42713;42.676;23.352;2023-05-21T02:35:02;94583.84;;;15.12;76.19
56831;BME280;42713;42.676;23.352;2023-05-21T02:37:30;94579.88;;;15.09;75.66
56831;BME280;42713;42.676;23.352;2023-05-21T02:39:59;94574.88;;;15.13;75.53
56831;BME280;42713;42.676;23.352;2023-05-21T02:42:25;94578.59;;;15.07;75.48
56831;BME280;42713;42.676;23.352;2023-05-21T02:44:51;94578.06;;;15.05;76.08
56831;BME280;42713;42.676;23.352;2023-05-21T02:47:17;94565.47;;;14.97;75.02
56831;BME280;42713;42.676;23.352;2023-05-21T02:49:43;94573.13;;;14.98;75.59
56831;BME280;42713;42.676;23.352;2023-05-21T02:52:08;94574.44;;;14.96;74.71
56831;BME280;42713;42.676;23.352;2023-05-21T02:54:34;94574.22;;;14.87;75.75
56831;BME280;42713;42.676;23.352;2023-05-21T02:56:59;94574.50;;;14.85;76.11
56831;BME280;42713;42.676;23.352;2023-05-21T02:59:25;94570.78;;;14.86;75.88
56831;BME280;42713;42.676;23.352;2023-05-21T03:01:50;94562.88;;;14.86;75.34
56831;BME280;42713;42.676;23.352;2023-05-21T03:04:16;94575.28;;;14.86;75.15
56831;BME280;42713;42.676;23.352;2023-05-21T03:06:42;94575.88;;;14.77;75.52
56831;BME280;42713;42.676;23.352;2023-05-21T03:09:08;94574.00;;;14.78;75.36
56831;BME280;42713;42.676;23.352;2023-05-21T03:11:35;94573.47;;;14.76;75.53
56831;BME280;42713;42.676;23.352;2023-05-21T03:14:01;94577.69;;;14.77;75.70
56831;BME280;42713;42.676;23.352;2023-05-21T03:16:26;94578.22;;;14.79;75.50
56831;BME280;42713;42.676;23.352;2023-05-21T03:18:53;94580.03;;;14.84;75.35
56831;BME280;42713;42.676;23.352;2023-05-21T03:21:19;94579.75;;;14.85;75.07
56831;BME280;42713;42.676;23.352;2023-05-21T03:23:48;94582.16;;;14.87;75.01
56831;BME280;42713;42.676;23.352;2023-05-21T03:26:13;94573.72;;;14.85;75.03
56831;BME280;42713;42.676;23.352;2023-05-21T03:28:39;94583.97;;;14.91;74.69
56831;BME280;42713;42.676;23.352;2023-05-21T03:31:04;94586.31;;;14.93;74.36
56831;BME280;42713;42.676;23.352;2023-05-21T03:33:30;94590.25;;;14.96;74.67
56831;BME280;42713;42.676;23.352;2023-05-21T03:35:55;94584.50;;;14.93;74.90
56831;BME280;42713;42.676;23.352;2023-05-21T03:38:21;94582.91;;;14.87;75.00
56831;BME280;42713;42.676;23.352;2023-05-21T03:40:47;94590.28;;;14.90;75.12
56831;BME280;42713;42.676;23.352;2023-05-21T03:43:13;94584.22;;;14.90;74.79
56831;BME280;42713;42.676;23.352;2023-05-21T03:45:38;94586.84;;;14.90;74.59
56831;BME280;42713;42.676;23.352;2023-05-21T03:48:04;94586.63;;;14.86;75.14
56831;BME280;42713;42.676;23.352;2023-05-21T03:50:29;94591.88;;;14.86;74.27
56831;BME280;42713;42.676;23.352;2023-05-21T03:52:55;94585.03;;;14.90;74.98
56831;BME280;42713;42.676;23.352;2023-05-21T03:55:20;94585.31;;;14.89;74.55
56831;BME280;42713;42.676;23.352;2023-05-21T03:57:46;94589.00;;;14.88;74.58
56831;BME280;42713;42.676;23.352;2023-05-21T04:00:11;94579.50;;;14.87;75.41
56831;BME280;42713;42.676;23.352;2023-05-21T04:02:38;94577.41;;;14.89;75.65
56831;BME280;42713;42.676;23.352;2023-05-21T04:05:03;94583.97;;;14.91;74.91
56831;BME280;42713;42.676;23.352;2023-05-21T04:07:29;94575.81;;;14.88;75.73
56831;BME280;42713;42.676;23.352;2023-05-21T04:09:55;94584.50;;;14.88;76.32
56831;BME280;42713;42.676;23.352;2023-05-21T04:12:20;94585.25;;;14.94;76.05
56831;BME280;42713;42.676;23.352;2023-05-21T04:14:46;94573.94;;;14.93;76.67
56831;BME280;42713;42.676;23.352;2023-05-21T04:17:12;94573.38;;;14.97;76.40
56831;BME280;42713;42.676;23.352;2023-05-21T04:19:37;94583.09;;;15.01;75.53
56831;BME280;42713;42.676;23.352;2023-05-21T04:22:03;94597.59;;;15.04;76.21
56831;BME280;42713;42.676;23.352;2023-05-21T04:24:29;94585.72;;;15.06;76.57
56831;BME280;42713;42.676;23.352;2023-05-21T04:26:55;94587.78;;;15.15;76.26
56831;BME280;42713;42.676;23.352;2023-05-21T04:29:28;94581.44;;;15.16;74.68
56831;BME280;42713;42.676;23.352;2023-05-21T04:31:55;94578.22;;;15.19;74.62
56831;BME280;42713;42.676;23.352;2023-05-21T04:34:21;94583.22;;;15.25;73.80
56831;BME280;42713;42.676;23.352;2023-05-21T04:36:46;94584.00;;;15.26;73.81
56831;BME280;42713;42.676;23.352;2023-05-21T04:39:12;94581.63;;;15.24;74.71
56831;BME280;42713;42.676;23.352;2023-05-21T04:41:39;94586.75;;;15.10;72.40
56831;BME280;42713;42.676;23.352;2023-05-21T04:44:08;94586.75;;;15.10;72.34
56831;BME280;42713;42.676;23.352;2023-05-21T04:46:34;94592.81;;;15.11;73.06
56831;BME280;42713;42.676;23.352;2023-05-21T04:49:01;94590.19;;;15.11;73.13
56831;BME280;42713;42.676;23.352;2023-05-21T04:51:30;94588.31;;;15.12;73.67
56831;BME280;42713;42.676;23.352;2023-05-21T04:53:56;94584.34;;;15.14;74.04
56831;BME280;42713;42.676;23.352;2023-05-21T04:56:23;94583.50;;;15.19;74.33
56831;BME280;42713;42.676;23.352;2023-05-21T04:58:53;94583.72;;;15.28;73.81
56831;BME280;42713;42.676;23.352;2023-05-21T05:01:20;94583.19;;;15.31;72.79
56831;BME280;42713;42.676;23.352;2023-05-21T05:03:47;94587.91;;;15.34;74.07
56831;BME280;42713;42.676;23.352;2023-05-21T05:06:13;94579.97;;;15.39;74.85
56831;BME280;42713;42.676;23.352;2023-05-21T05:08:38;94583.34;;;15.45;74.67
56831;BME280;42713;42.676;23.352;2023-05-21T05:11:04;94586.16;;;15.53;75.12
56831;BME280;42713;42.676;23.352;2023-05-21T05:13:29;94585.34;;;15.58;75.76
56831;BME280;42713;42.676;23.352;2023-05-21T05:15:55;94590.28;;;15.65;75.45
56831;BME280;42713;42.676;23.352;2023-05-21T05:18:21;94590.78;;;15.72;76.14
56831;BME280;42713;42.676;23.352;2023-05-21T05:20:47;94588.88;;;15.78;75.74
56831;BME280;42713;42.676;23.352;2023-05-21T05:23:13;94589.91;;;15.82;74.86
56831;BME280;42713;42.676;23.352;2023-05-21T05:25:38;94591.22;;;15.84;74.87
56831;BME280;42713;42.676;23.352;2023-05-21T05:28:04;94586.41;;;15.92;75.37
56831;BME280;42713;42.676;23.352;2023-05-21T05:30:29;94581.06;;;15.97;74.96
56831;BME280;42713;42.676;23.352;2023-05-21T05:32:55;94578.09;;;16.03;75.45
56831;BME280;42713;42.676;23.352;2023-05-21T05:35:20;94587.53;;;16.10;74.43
56831;BME280;42713;42.676;23.352;2023-05-21T05:37:46;94582.47;;;16.13;74.07
56831;BME280;42713;42.676;23.352;2023-05-21T05:40:12;94582.16;;;16.20;73.50
56831;BME280;42713;42.676;23.352;2023-05-21T05:42:37;94584.47;;;16.27;73.71
56831;BME280;42713;42.676;23.352;2023-05-21T05:45:03;94579.69;;;16.29;72.96
56831;BME280;42713;42.676;23.352;2023-05-21T05:47:29;94577.25;;;16.32;72.80
56831;BME280;42713;42.676;23.352;2023-05-21T05:49:54;94574.56;;;16.38;72.96
56831;BME280;42713;42.676;23.352;2023-05-21T05:52:20;94580.84;;;16.42;72.66
56831;BME280;42713;42.676;23.352;2023-05-21T05:54:45;94573.91;;;16.46;72.79
56831;BME280;42713;42.676;23.352;2023-05-21T05:57:11;94573.09;;;16.51;73.07
56831;BME280;42713;42.676;23.352;2023-05-21T05:59:37;94578.59;;;16.54;72.33
56831;BME280;42713;42.676;23.352;2023-05-21T06:02:02;94580.09;;;16.60;72.23
56831;BME280;42713;42.676;23.352;2023-05-21T06:04:28;94577.13;;;16.67;71.67
56831;BME280;42713;42.676;23.352;2023-05-21T06:06:57;94569.09;;;16.72;70.15
56831;BME280;42713;42.676;23.352;2023-05-21T06:09:23;94566.41;;;16.77;68.18
56831;BME280;42713;42.676;23.352;2023-05-21T06:11:48;94570.25;;;16.85;67.81
56831;BME280;42713;42.676;23.352;2023-05-21T06:14:14;94567.81;;;16.94;67.86
56831;BME280;42713;42.676;23.352;2023-05-21T06:16:39;94570.88;;;17.01;67.75
56831;BME280;42713;42.676;23.352;2023-05-21T06:19:05;94567.88;;;17.08;66.33
56831;BME280;42713;42.676;23.352;2023-05-21T06:21:30;94563.84;;;17.10;63.99
56831;BME280;42713;42.676;23.352;2023-05-21T06:23:56;94559.06;;;17.13;63.03
56831;BME280;42713;42.676;23.352;2023-05-21T06:26:21;94563.22;;;17.19;63.29
56831;BME280;42713;42.676;23.352;2023-05-21T06:28:48;94556.28;;;17.23;63.70
56831;BME280;42713;42.676;23.352;2023-05-21T06:31:13;94555.97;;;17.24;62.42
56831;BME280;42713;42.676;23.352;2023-05-21T06:33:39;94558.63;;;17.24;61.84
56831;BME280;42713;42.676;23.352;2023-05-21T06:36:05;94554.63;;;17.27;62.45
56831;BME280;42713;42.676;23.352;2023-05-21T06:38:30;94559.63;;;17.29;62.31
56831;BME280;42713;42.676;23.352;2023-05-21T06:40:55;94554.84;;;17.31;62.86
56831;BME280;42713;42.676;23.352;2023-05-21T06:43:23;94548.97;;;17.34;63.50
56831;BME280;42713;42.676;23.352;2023-05-21T06:45:48;94550.25;;;17.36;62.83
56831;BME280;42713;42.676;23.352;2023-05-21T06:48:14;94547.00;;;17.39;63.23
56831;BME280;42713;42.676;23.352;2023-05-21T06:50:43;94541.94;;;17.43;62.67
56831;BME280;42713;42.676;23.352;2023-05-21T06:53:08;94545.25;;;17.49;62.79
56831;BME280;42713;42.676;23.352;2023-05-21T06:55:34;94539.59;;;17.55;62.91
56831;BME280;42713;42.676;23.352;2023-05-21T06:58:00;94544.03;;;17.60;62.06
56831;BME280;42713;42.676;23.352;2023-05-21T07:00:26;94545.03;;;17.64;63.33
56831;BME280;42713;42.676;23.352;2023-05-21T07:02:51;94544.94;;;17.69;63.37
56831;BME280;42713;42.676;23.352;2023-05-21T07:05:17;94534.25;;;17.74;61.18
56831;BME280;42713;42.676;23.352;2023-05-21T07:07:42;94541.53;;;17.83;60.47
56831;BME280;42713;42.676;23.352;2023-05-21T07:10:08;94538.78;;;17.88;60.76
56831;BME280;42713;42.676;23.352;2023-05-21T07:12:34;94534.47;;;17.92;60.33
56831;BME280;42713;42.676;23.352;2023-05-21T07:14:59;94528.03;;;17.98;59.87
56831;BME280;42713;42.676;23.352;2023-05-21T07:17:25;94530.41;;;18.00;59.51
56831;BME280;42713;42.676;23.352;2023-05-21T07:19:50;94540.13;;;18.04;59.15
56831;BME280;42713;42.676;23.352;2023-05-21T07:22:16;94526.25;;;18.08;58.89
56831;BME280;42713;42.676;23.352;2023-05-21T07:24:41;94537.78;;;18.17;58.95
56831;BME280;42713;42.676;23.352;2023-05-21T07:27:07;94532.84;;;18.24;59.06
56831;BME280;42713;42.676;23.352;2023-05-21T07:29:32;94542.25;;;18.30;58.89
56831;BME280;42713;42.676;23.352;2023-05-21T07:31:58;94541.88;;;18.37;58.07
56831;BME280;42713;42.676;23.352;2023-05-21T07:34:24;94538.34;;;18.42;57.42
56831;BME280;42713;42.676;23.352;2023-05-21T07:36:50;94540.41;;;18.45;57.22
56831;BME280;42713;42.676;23.352;2023-05-21T07:39:15;94541.19;;;18.45;55.88
56831;BME280;42713;42.676;23.352;2023-05-21T07:41:41;94536.69;;;18.46;55.67
56831;BME280;42713;42.676;23.352;2023-05-21T07:44:07;94539.03;;;18.47;55.90
56831;BME280;42713;42.676;23.352;2023-05-21T07:46:32;94534.50;;;18.48;55.25
56831;BME280;42713;42.676;23.352;2023-05-21T07:48:58;94540.78;;;18.52;53.78
56831;BME280;42713;42.676;23.352;2023-05-21T07:51:23;94532.72;;;18.57;54.05
56831;BME280;42713;42.676;23.352;2023-05-21T07:53:49;94534.38;;;18.67;54.94
56831;BME280;42713;42.676;23.352;2023-05-21T07:56:14;94537.22;;;18.71;54.45
56831;BME280;42713;42.676;23.352;2023-05-21T07:58:40;94528.53;;;18.79;53.51
56831;BME280;42713;42.676;23.352;2023-05-21T08:01:08;94528.63;;;18.88;52.97
56831;BME280;42713;42.676;23.352;2023-05-21T08:03:33;94522.94;;;18.94;52.05
56831;BME280;42713;42.676;23.352;2023-05-21T08:05:58;94528.31;;;19.03;52.48
56831;BME280;42713;42.676;23.352;2023-05-21T08:08:24;94534.78;;;19.11;49.99
56831;BME280;42713;42.676;23.352;2023-05-21T08:10:49;94530.72;;;19.13;49.36
56831;BME280;42713;42.676;23.352;2023-05-21T08:13:15;94535.50;;;19.25;47.52
56831;BME280;42713;42.676;23.352;2023-05-21T08:15:41;94534.00;;;19.33;46.04
56831;BME280;42713;42.676;23.352;2023-05-21T08:18:06;94541.22;;;19.41;46.39
56831;BME280;42713;42.676;23.352;2023-05-21T08:20:33;94535.50;;;19.48;45.95
56831;BME280;42713;42.676;23.352;2023-05-21T08:22:59;94534.34;;;19.63;45.86
56831;BME280;42713;42.676;23.352;2023-05-21T08:25:28;94525.78;;;19.75;44.15
56831;BME280;42713;42.676;23.352;2023-05-21T08:27:53;94529.78;;;19.86;44.31
56831;BME280;42713;42.676;23.352;2023-05-21T08:30:19;94531.53;;;19.91;44.30
56831;BME280;42713;42.676;23.352;2023-05-21T08:32:46;94526.09;;;19.96;44.09
56831;BME280;42713;42.676;23.352;2023-05-21T08:35:12;94533.16;;;20.01;41.64
56831;BME280;42713;42.676;23.352;2023-05-21T08:37:37;94535.31;;;19.99;42.24
56831;BME280;42713;42.676;23.352;2023-05-21T08:40:03;94533.44;;;19.99;42.59
56831;BME280;42713;42.676;23.352;2023-05-21T08:42:42;94531.44;;;20.05;42.82
56831;BME280;42713;42.676;23.352;2023-05-21T08:45:12;94528.34;;;20.12;41.26
56831;BME280;42713;42.676;23.352;2023-05-21T08:47:41;94532.44;;;20.27;42.00
56831;BME280;42713;42.676;23.352;2023-05-21T08:50:16;94524.19;;;20.37;42.06
56831;BME280;42713;42.676;23.352;2023-05-21T08:52:45;94533.59;;;20.43;41.80
56831;BME280;42713;42.676;23.352;2023-05-21T08:55:10;94536.72;;;20.45;41.43
56831;BME280;42713;42.676;23.352;2023-05-21T08:57:41;94529.53;;;20.46;40.16
56831;BME280;42713;42.676;23.352;2023-05-21T09:00:07;94523.25;;;20.42;40.13
56831;BME280;42713;42.676;23.352;2023-05-21T09:02:33;94525.91;;;20.42;40.88
56831;BME280;42713;42.676;23.352;2023-05-21T09:05:00;94519.47;;;20.34;41.47
56831;BME280;42713;42.676;23.352;2023-05-21T09:07:27;94535.44;;;20.34;41.17
56831;BME280;42713;42.676;23.352;2023-05-21T09:09:57;94522.47;;;20.32;42.09
56831;BME280;42713;42.676;23.352;2023-05-21T09:12:26;94530.13;;;20.34;43.94
56831;BME280;42713;42.676;23.352;2023-05-21T09:14:51;94534.22;;;20.40;44.14
56831;BME280;42713;42.676;23.352;2023-05-21T09:17:17;94533.13;;;20.41;42.92
56831;BME280;42713;42.676;23.352;2023-05-21T09:20:03;94527.97;;;20.45;42.28
56831;BME280;42713;42.676;23.352;2023-05-21T09:22:50;94530.31;;;20.46;42.33
56831;BME280;42713;42.676;23.352;2023-05-21T09:25:18;94529.88;;;20.53;41.35
56831;BME280;42713;42.676;23.352;2023-05-21T09:27:45;94525.78;;;20.56;41.22
56831;BME280;42713;42.676;23.352;2023-05-21T09:30:12;94533.00;;;20.64;41.25
56831;BME280;42713;42.676;23.352;2023-05-21T09:32:39;94531.31;;;20.68;41.37
56831;BME280;42713;42.676;23.352;2023-05-21T09:35:13;94526.13;;;20.72;40.56
56831;BME280;42713;42.676;23.352;2023-05-21T09:42:49;94515.00;;;20.69;38.34
56831;BME280;42713;42.676;23.352;2023-05-21T09:45:19;94518.75;;;20.68;39.31
56831;BME280;42713;42.676;23.352;2023-05-21T09:47:46;94512.81;;;20.72;39.56
56831;BME280;42713;42.676;23.352;2023-05-21T09:50:13;94511.72;;;20.64;38.25
56831;BME280;42713;42.676;23.352;2023-05-21T09:52:41;94505.78;;;20.67;37.92
56831;BME280;42713;42.676;23.352;2023-05-21T09:55:11;94508.28;;;20.72;39.93
56831;BME280;42713;42.676;23.352;2023-05-21T09:57:47;94506.28;;;20.87;41.15
56831;BME280;42713;42.676;23.352;2023-05-21T10:02:46;94504.28;;;21.01;37.21
56831;BME280;42713;42.676;23.352;2023-05-21T10:05:16;94503.63;;;21.13;38.11
56831;BME280;42713;42.676;23.352;2023-05-21T10:07:51;94493.28;;;21.29;37.93
56831;BME280;42713;42.676;23.352;2023-05-21T10:10:21;94500.75;;;21.44;38.52
56831;BME280;42713;42.676;23.352;2023-05-21T10:12:53;94510.78;;;21.48;37.78
56831;BME280;42713;42.676;23.352;2023-05-21T10:15:23;94491.00;;;21.57;36.70
56831;BME280;42713;42.676;23.352;2023-05-21T10:17:54;94503.41;;;21.62;37.38
56831;BME280;42713;42.676;23.352;2023-05-21T10:20:21;94487.88;;;21.64;37.08
56831;BME280;42713;42.676;23.352;2023-05-21T10:22:47;94488.38;;;21.66;37.18
56831;BME280;42713;42.676;23.352;2023-05-21T10:25:17;94493.22;;;21.73;37.25
56831;BME280;42713;42.676;23.352;2023-05-21T10:27:43;94483.28;;;21.82;37.49
56831;BME280;42713;42.676;23.352;2023-05-21T10:30:09;94496.09;;;21.98;38.64
56831;BME280;42713;42.676;23.352;2023-05-21T10:32:39;94495.41;;;22.10;37.17
56831;BME280;42713;42.676;23.352;2023-05-21T10:35:06;94491.94;;;22.18;36.85
56831;BME280;42713;42.676;23.352;2023-05-21T10:37:33;94496.59;;;22.21;37.18
56831;BME280;42713;42.676;23.352;2023-05-21T10:39:59;94484.78;;;22.31;38.99
56831;BME280;42713;42.676;23.352;2023-05-21T10:53:28;94489.59;;;22.46;36.73
56831;BME280;42713;42.676;23.352;2023-05-21T11:01:30;94491.50;;;22.37;38.51
56831;BME280;42713;42.676;23.352;2023-05-21T11:03:58;94482.91;;;22.31;38.48
56831;BME280;42713;42.676;23.352;2023-05-21T11:06:24;94486.00;;;22.12;37.89
56831;BME280;42713;42.676;23.352;2023-05-21T11:08:51;94489.31;;;22.00;38.18
56831;BME280;42713;42.676;23.352;2023-05-21T11:11:39;94480.91;;;21.89;38.86
56831;BME280;42713;42.676;23.352;2023-05-21T11:14:37;94479.38;;;21.80;38.81
56831;BME280;42713;42.676;23.352;2023-05-21T11:17:08;94476.41;;;21.72;39.02
56831;BME280;42713;42.676;23.352;2023-05-21T11:19:36;94474.50;;;21.82;39.66
56831;BME280;42713;42.676;23.352;2023-05-21T11:22:08;94468.88;;;22.13;39.16
56831;BME280;42713;42.676;23.352;2023-05-21T11:24:37;94467.81;;;22.35;39.66
56831;BME280;42713;42.676;23.352;2023-05-21T11:27:04;94467.34;;;22.42;39.50
56831;BME280;42713;42.676;23.352;2023-05-21T11:29:41;94470.44;;;22.44;38.61
56831;BME280;42713;42.676;23.352;2023-05-21T11:32:09;94452.72;;;22.39;38.40
56831;BME280;42713;42.676;23.352;2023-05-21T11:34:45;94463.91;;;22.33;38.57
56831;BME280;42713;42.676;23.352;2023-05-21T11:39:46;94467.47;;;22.16;38.83
56831;BME280;42713;42.676;23.352;2023-05-21T11:42:12;94456.22;;;22.01;39.09
56831;BME280;42713;42.676;23.352;2023-05-21T11:44:51;94462.38;;;21.93;39.53
56831;BME280;42713;42.676;23.352;2023-05-21T11:47:18;94456.31;;;21.84;38.76
56831;BME280;42713;42.676;23.352;2023-05-21T11:49:44;94456.03;;;21.76;39.82
56831;BME280;42713;42.676;23.352;2023-05-21T11:52:11;94454.78;;;21.74;39.45
56831;BME280;42713;42.676;23.352;2023-05-21T11:54:42;94450.72;;;21.68;40.09
56831;BME280;42713;42.676;23.352;2023-05-21T11:57:10;94457.47;;;21.65;40.36
56831;BME280;42713;42.676;23.352;2023-05-21T11:59:36;94444.34;;;21.60;40.70
56831;BME280;42713;42.676;23.352;2023-05-21T12:02:02;94455.13;;;21.55;41.84
56831;BME280;42713;42.676;23.352;2023-05-21T12:04:32;94455.94;;;21.46;41.08
56831;BME280;42713;42.676;23.352;2023-05-21T12:07:05;94450.16;;;21.36;41.93
56831;BME280;42713;42.676;23.352;2023-05-21T12:09:46;94450.19;;;21.27;42.76
56831;BME280;42713;42.676;23.352;2023-05-21T12:12:18;94443.63;;;21.15;43.09
56831;BME280;42713;42.676;23.352;2023-05-21T12:14:48;94436.44;;;21.07;43.24
56831;BME280;42713;42.676;23.352;2023-05-21T12:17:16;94441.47;;;21.00;43.17
56831;BME280;42713;42.676;23.352;2023-05-21T12:19:42;94442.41;;;20.95;43.53
56831;BME280;42713;42.676;23.352;2023-05-21T12:22:08;94438.66;;;20.88;44.10
56831;BME280;42713;42.676;23.352;2023-05-21T12:24:35;94441.47;;;20.82;44.75
56831;BME280;42713;42.676;23.352;2023-05-21T12:27:03;94443.97;;;20.79;44.03
56831;BME280;42713;42.676;23.352;2023-05-21T12:29:35;94448.03;;;20.76;44.84
56831;BME280;42713;42.676;23.352;2023-05-21T12:32:01;94436.75;;;20.71;45.16
56831;BME280;42713;42.676;23.352;2023-05-21T12:34:38;94433.59;;;20.68;45.32
56831;BME280;42713;42.676;23.352;2023-05-21T12:37:10;94431.75;;;20.69;44.84
56831;BME280;42713;42.676;23.352;2023-05-21T12:39:42;94430.94;;;20.68;45.53
56831;BME280;42713;42.676;23.352;2023-05-21T12:42:08;94432.50;;;20.69;45.16
56831;BME280;42713;42.676;23.352;2023-05-21T12:44:33;94428.00;;;20.70;45.79
56831;BME280;42713;42.676;23.352;2023-05-21T12:46:59;94429.09;;;20.69;45.33
56831;BME280;42713;42.676;23.352;2023-05-21T12:49:33;94418.28;;;20.65;44.93
56831;BME280;42713;42.676;23.352;2023-05-21T12:52:01;94422.81;;;20.65;45.35
56831;BME280;42713;42.676;23.352;2023-05-21T12:54:30;94428.13;;;20.65;45.53
56831;BME280;42713;42.676;23.352;2023-05-21T12:56:55;94428.13;;;20.65;46.11
56831;BME280;42713;42.676;23.352;2023-05-21T12:59:21;94423.91;;;20.64;45.04
56831;BME280;42713;42.676;23.352;2023-05-21T13:01:47;94430.31;;;20.63;44.75
56831;BME280;42713;42.676;23.352;2023-05-21T13:04:12;94426.13;;;20.62;45.43
56831;BME280;42713;42.676;23.352;2023-05-21T13:06:44;94426.41;;;20.60;44.61
56831;BME280;42713;42.676;23.352;2023-05-21T13:09:09;94423.28;;;20.58;45.48
56831;BME280;42713;42.676;23.352;2023-05-21T13:11:35;94421.88;;;20.61;45.19
56831;BME280;42713;42.676;23.352;2023-05-21T13:14:00;94421.88;;;20.61;45.80
56831;BME280;42713;42.676;23.352;2023-05-21T13:16:26;94418.13;;;20.62;45.09